createdAt,value
2017-11-30T00:00:52.720Z,109.47
2017-11-30T00:03:20.914Z,18.90
2017-11-30T00:05:49.262Z,19.27
2017-11-30T00:08:17.700Z,17.27
2017-11-30T00:10:46.032Z,13.73
2017-11-30T00:13:16.215Z,14.00
2017-11-30T00:18:20.064Z,16.83
2017-11-30T00:20:49.153Z,15.90
2017-11-30T00:23:18.432Z,15.37
2017-11-30T00:25:47.765Z,15.40
2017-11-30T00:28:16.247Z,13.40
2017-11-30T00:30:45.715Z,12.57
2017-11-30T00:33:14.022Z,13.07
2017-11-30T00:35:42.849Z,19.33
2017-11-30T00:38:11.160Z,14.93
2017-11-30T00:40:41.931Z,14.77
2017-11-30T00:43:23.145Z,14.50
2017-11-30T00:45:52.184Z,12.87
2017-11-30T00:48:20.559Z,16.10
2017-11-30T00:50:49.632Z,17.87
2017-11-30T00:53:17.944Z,15.77
2017-11-30T00:55:46.363Z,15.40
2017-11-30T00:58:15.490Z,16.80
2017-11-30T01:00:43.827Z,12.67
2017-11-30T01:03:12.171Z,16.17
2017-11-30T01:05:41.341Z,14.70
2017-11-30T01:08:09.659Z,13.00
2017-11-30T01:10:37.948Z,17.50
2017-11-30T01:13:07.002Z,10.77
2017-11-30T01:15:36.075Z,16.07
2017-11-30T01:18:04.370Z,15.27
2017-11-30T01:20:32.879Z,14.83
2017-11-30T01:23:01.951Z,15.17
2017-11-30T01:25:31.044Z,11.90
2017-11-30T01:27:59.392Z,14.83
2017-11-30T01:30:27.740Z,16.30
2017-11-30T01:32:56.797Z,14.30
2017-11-30T01:35:25.147Z,16.30
2017-11-30T01:37:55.070Z,16.60
2017-11-30T01:40:24.238Z,16.83
2017-11-30T01:42:52.530Z,16.17
2017-11-30T01:45:20.809Z,15.63
2017-11-30T01:47:50.805Z,16.53
2017-11-30T01:50:19.161Z,12.57
2017-11-30T01:52:47.524Z,15.70
2017-11-30T01:55:16.775Z,19.53
2017-11-30T01:57:45.304Z,15.73
2017-11-30T02:00:13.630Z,17.13
2017-11-30T02:02:42.051Z,15.00
2017-11-30T02:05:10.402Z,14.23
2017-11-30T02:07:38.785Z,17.40
2017-11-30T02:10:07.089Z,13.97
2017-11-30T02:12:35.442Z,14.67
2017-11-30T02:15:03.726Z,14.93
2017-11-30T02:17:33.096Z,12.63
2017-11-30T02:20:02.379Z,14.77
2017-11-30T02:22:31.490Z,18.50
2017-11-30T02:24:59.847Z,15.70
2017-11-30T02:27:28.143Z,15.73
2017-11-30T02:29:57.438Z,14.63
2017-11-30T02:32:26.560Z,15.53
2017-11-30T02:34:54.872Z,20.03
2017-11-30T02:37:27.386Z,15.90
2017-11-30T02:39:55.711Z,15.73
2017-11-30T02:42:24.103Z,18.47
2017-11-30T02:44:52.590Z,18.70
2017-11-30T02:47:21.869Z,16.07
2017-11-30T02:49:51.206Z,14.67
2017-11-30T02:52:20.300Z,18.60
2017-11-30T02:54:49.502Z,16.70
2017-11-30T02:57:18.571Z,16.87
2017-11-30T02:59:48.581Z,17.10
2017-11-30T03:02:16.937Z,18.97
2017-11-30T03:04:45.251Z,27.40
2017-11-30T03:07:15.689Z,24.63
2017-11-30T03:09:44.902Z,27.30
2017-11-30T03:12:14.207Z,30.90
2017-11-30T03:14:42.631Z,30.43
2017-11-30T03:17:12.703Z,27.33
2017-11-30T03:19:42.200Z,26.27
2017-11-30T03:22:12.223Z,30.77
2017-11-30T03:24:41.481Z,33.50
2017-11-30T03:27:09.766Z,25.97
2017-11-30T03:29:38.134Z,31.80
2017-11-30T03:32:06.547Z,30.17
2017-11-30T03:34:34.873Z,33.27
2017-11-30T03:37:03.151Z,28.33
2017-11-30T03:39:31.439Z,32.47
2017-11-30T03:41:59.775Z,33.10
2017-11-30T03:44:28.781Z,31.10
2017-11-30T03:46:57.066Z,31.37
2017-11-30T03:49:25.463Z,33.53
2017-11-30T03:51:53.746Z,29.27
2017-11-30T03:54:22.063Z,29.53
2017-11-30T03:56:50.358Z,29.00
2017-11-30T03:59:18.688Z,30.77
2017-11-30T04:01:48.550Z,34.00
2017-11-30T04:04:16.873Z,25.87
2017-11-30T04:06:45.191Z,33.70
2017-11-30T04:09:15.406Z,33.80
2017-11-30T04:11:43.692Z,30.23
2017-11-30T04:14:12.163Z,36.00
2017-11-30T04:16:40.490Z,26.87
2017-11-30T04:19:09.157Z,29.33
2017-11-30T04:21:37.469Z,30.77
2017-11-30T04:24:06.773Z,32.73
2017-11-30T04:26:35.036Z,34.53
2017-11-30T04:29:03.353Z,34.73
2017-11-30T04:31:31.687Z,34.93
2017-11-30T04:34:00.937Z,31.67
2017-11-30T04:36:29.252Z,31.17
2017-11-30T04:38:57.570Z,36.70
2017-11-30T04:41:27.390Z,25.60
2017-11-30T04:43:57.326Z,34.40
2017-11-30T04:46:25.595Z,37.30
2017-11-30T04:48:54.830Z,29.67
2017-11-30T04:51:23.106Z,29.73
2017-11-30T04:53:51.378Z,33.30
2017-11-30T04:56:19.665Z,33.47
2017-11-30T04:58:48.078Z,31.90
2017-11-30T05:01:16.354Z,42.40
2017-11-30T05:03:44.750Z,33.67
2017-11-30T05:06:13.075Z,33.27
2017-11-30T05:08:41.667Z,36.20
2017-11-30T05:11:10.043Z,34.80
2017-11-30T05:13:39.232Z,31.10
2017-11-30T05:16:07.504Z,34.27
2017-11-30T05:18:36.641Z,33.37
2017-11-30T05:21:05.144Z,31.90
2017-11-30T05:23:33.422Z,36.40
2017-11-30T05:26:02.183Z,32.60
2017-11-30T05:28:30.593Z,31.33
2017-11-30T05:30:59.064Z,32.70
2017-11-30T05:33:27.405Z,33.40
2017-11-30T05:35:55.782Z,30.27
2017-11-30T05:38:25.119Z,31.70
2017-11-30T05:40:54.360Z,35.87
2017-11-30T05:43:23.743Z,30.57
2017-11-30T05:45:52.790Z,50.33
2017-11-30T05:48:21.167Z,33.43
2017-11-30T05:50:49.441Z,28.20
2017-11-30T05:53:17.759Z,35.03
2017-11-30T05:55:47.113Z,34.87
2017-11-30T05:58:15.435Z,32.40
2017-11-30T06:00:44.586Z,35.17
2017-11-30T06:03:12.890Z,36.63
2017-11-30T06:05:41.197Z,39.10
2017-11-30T06:08:11.228Z,39.10
2017-11-30T06:10:39.530Z,33.57
2017-11-30T06:13:07.809Z,33.40
2017-11-30T06:15:36.076Z,40.17
2017-11-30T06:18:04.382Z,32.83
2017-11-30T06:20:32.786Z,31.97
2017-11-30T06:23:02.096Z,37.43
2017-11-30T06:25:30.405Z,36.30
2017-11-30T06:27:58.741Z,40.70
2017-11-30T06:30:27.832Z,34.50
2017-11-30T06:32:57.106Z,38.40
2017-11-30T06:35:25.615Z,36.50
2017-11-30T06:37:54.257Z,27.83
2017-11-30T06:40:22.540Z,29.37
2017-11-30T06:42:50.870Z,36.30
2017-11-30T06:45:19.249Z,29.50
2017-11-30T06:47:47.566Z,31.00
2017-11-30T06:50:16.867Z,27.10
2017-11-30T06:52:46.139Z,29.77
2017-11-30T06:55:16.291Z,34.93
2017-11-30T06:57:44.611Z,30.50
2017-11-30T07:00:14.013Z,28.17
2017-11-30T07:02:42.286Z,34.03
2017-11-30T07:05:10.612Z,29.83
2017-11-30T07:07:38.888Z,20.40
2017-11-30T07:10:07.187Z,24.93
2017-11-30T07:12:35.498Z,28.80
2017-11-30T07:15:03.786Z,21.10
2017-11-30T07:17:32.971Z,26.33
2017-11-30T07:20:01.257Z,29.67
2017-11-30T07:22:30.657Z,27.23
2017-11-30T07:24:58.958Z,30.10
2017-11-30T07:27:27.567Z,26.80
2017-11-30T07:29:55.923Z,27.73
2017-11-30T07:32:24.226Z,26.53
2017-11-30T07:34:52.488Z,30.70
2017-11-30T07:37:20.825Z,28.00
2017-11-30T07:39:50.015Z,34.67
2017-11-30T07:42:18.497Z,29.97
2017-11-30T07:44:46.734Z,29.60
2017-11-30T07:47:15.609Z,34.00
2017-11-30T07:49:43.881Z,34.83
2017-11-30T07:52:12.157Z,31.77
2017-11-30T07:54:40.445Z,38.43
2017-11-30T07:57:08.702Z,40.47
2017-11-30T07:59:37.146Z,32.50
2017-11-30T08:02:05.527Z,39.07
2017-11-30T08:04:34.010Z,28.13
2017-11-30T08:07:03.780Z,31.17
2017-11-30T08:09:32.099Z,33.07
2017-11-30T08:12:00.658Z,39.07
2017-11-30T08:14:28.963Z,34.10
2017-11-30T08:16:57.267Z,42.47
2017-11-30T08:19:26.443Z,37.97
2017-11-30T08:21:54.885Z,40.13
2017-11-30T08:24:23.174Z,44.67
2017-11-30T08:26:51.754Z,32.53
2017-11-30T08:29:20.082Z,36.63
2017-11-30T08:31:49.293Z,42.23
2017-11-30T08:34:17.667Z,46.20
2017-11-30T08:36:49.412Z,45.13
2017-11-30T08:39:17.699Z,48.37
2017-11-30T08:41:46.057Z,42.80
2017-11-30T08:44:15.255Z,41.40
2017-11-30T08:46:45.266Z,55.33
2017-11-30T08:49:13.745Z,47.33
2017-11-30T08:51:42.212Z,39.50
2017-11-30T08:54:11.458Z,39.80
2017-11-30T08:56:39.765Z,34.93
2017-11-30T08:59:08.139Z,37.30
2017-11-30T09:01:36.387Z,36.33
2017-11-30T09:04:04.679Z,33.47
2017-11-30T09:06:33.209Z,31.00
2017-11-30T09:09:01.492Z,31.43
2017-11-30T09:11:29.812Z,25.40
2017-11-30T09:13:58.400Z,35.80
2017-11-30T09:16:26.771Z,33.33
2017-11-30T09:18:55.218Z,33.47
2017-11-30T09:21:24.352Z,27.40
2017-11-30T09:23:54.099Z,28.13
2017-11-30T09:26:22.592Z,26.77
2017-11-30T09:28:52.781Z,28.37
2017-11-30T09:31:22.013Z,37.07
2017-11-30T09:33:51.114Z,33.27
2017-11-30T09:36:19.487Z,29.40
2017-11-30T09:38:49.259Z,34.30
2017-11-30T09:41:18.635Z,35.43
2017-11-30T09:43:47.037Z,28.83
2017-11-30T09:46:15.286Z,30.60
2017-11-30T09:48:43.567Z,33.00
2017-11-30T09:51:12.011Z,33.97
2017-11-30T09:53:40.353Z,28.37
2017-11-30T09:56:08.610Z,34.40
2017-11-30T09:58:36.865Z,36.30
2017-11-30T10:01:06.199Z,35.63
2017-11-30T10:03:34.514Z,40.30
2017-11-30T10:06:04.529Z,42.67
2017-11-30T10:08:33.063Z,34.73
2017-11-30T10:11:01.338Z,42.43
2017-11-30T10:13:29.645Z,32.87
2017-11-30T10:16:00.301Z,39.33
2017-11-30T10:18:30.331Z,32.47
2017-11-30T10:20:58.582Z,38.30
2017-11-30T10:23:27.702Z,42.67
2017-11-30T10:25:56.734Z,32.10
2017-11-30T10:28:25.907Z,42.57
2017-11-30T10:30:54.192Z,41.33
2017-11-30T10:33:23.463Z,33.90
2017-11-30T10:35:52.372Z,41.83
2017-11-30T10:38:22.470Z,37.13
2017-11-30T10:40:55.602Z,40.10
2017-11-30T10:43:27.994Z,34.17
2017-11-30T10:45:56.420Z,31.90
2017-11-30T10:48:25.638Z,37.60
2017-11-30T10:50:54.234Z,32.53
2017-11-30T10:53:23.288Z,35.30
2017-11-30T10:55:51.769Z,36.10
2017-11-30T10:58:21.843Z,34.73
2017-11-30T11:00:50.148Z,39.27
2017-11-30T11:03:18.520Z,39.50
2017-11-30T11:05:48.683Z,33.50
2017-11-30T11:08:21.160Z,37.27
2017-11-30T11:10:54.357Z,36.83
2017-11-30T11:13:22.715Z,36.67
2017-11-30T11:16:05.429Z,38.20
2017-11-30T11:18:43.234Z,38.57
2017-11-30T11:21:39.877Z,34.73
2017-11-30T11:24:11.906Z,30.37
2017-11-30T11:26:40.274Z,37.60
2017-11-30T12:35:57.193Z,27.47
2017-11-30T16:06:44.672Z,21.37
2017-11-30T16:09:26.065Z,21.30
2017-11-30T20:22:28.239Z,17.23
2017-11-30T23:07:19.919Z,21.02
2017-11-30T23:09:48.205Z,22.63
2017-11-30T23:12:17.299Z,16.27
2017-11-30T23:14:45.700Z,18.97
2017-11-30T23:17:22.878Z,15.53
2017-11-30T23:19:52.650Z,19.00
2017-11-30T23:22:21.029Z,19.23
2017-11-30T23:24:49.384Z,15.70
2017-11-30T23:27:19.380Z,17.93
2017-11-30T23:29:52.210Z,17.30
2017-11-30T23:32:21.348Z,16.67
2017-11-30T23:34:50.276Z,16.93
2017-11-30T23:37:19.365Z,17.10
2017-11-30T23:39:50.298Z,15.90
2017-11-30T23:42:19.621Z,20.33
2017-11-30T23:44:47.898Z,15.80
2017-11-30T23:47:18.391Z,17.50
2017-11-30T23:49:46.764Z,16.97
2017-11-30T23:52:15.113Z,17.23
2017-11-30T23:54:43.439Z,16.13
2017-11-30T23:57:14.409Z,17.77
2017-11-30T23:59:47.811Z,13.80
